21°C Temp
19°C Dewpoint
% Humidity
Temperature
10 KM/H
6 MPH
5 KTS
Calm
Due North

Wind Speed
Overcast
Conditions
Pressure 1016.92 (hPa) - 30.03 (in)
Visibility 5.6 (mi) - 9.0 (km)

Current Conditions
EPKT
Location 6km (3.2mi)
Metar :EPKT 240430Z VRB05KT 9000 OVC007 21/19 Q1017
Thu 24th June 06:30 am

Airport
  Metar Aviation API Data Provided by https://www.checkwx.com/ CSS/SVG/PHP scripts by weather34.com © 2015-2021